createdAt,value
2018-07-08T00:01:03.088Z,97893.84
2018-07-08T00:03:35.438Z,97891.41
2018-07-08T00:06:08.284Z,97891.67
2018-07-08T00:08:41.627Z,97889.45
2018-07-08T00:11:13.927Z,97888.94
2018-07-08T00:13:46.928Z,97898.25
2018-07-08T00:16:20.047Z,97893.36
2018-07-08T00:18:53.004Z,97898.25
2018-07-08T00:21:25.527Z,97893.11
2018-07-08T00:23:58.348Z,97893.05
2018-07-08T00:26:31.371Z,97893.92
2018-07-08T00:29:04.846Z,97890.37
2018-07-08T00:31:37.708Z,97897.08
2018-07-08T00:34:10.615Z,97904.09
2018-07-08T00:36:42.988Z,97904.36
2018-07-08T00:39:15.140Z,97907.30
2018-07-08T00:41:48.158Z,97903.27
2018-07-08T00:44:20.891Z,97908.34
2018-07-08T00:46:53.716Z,97906.23
2018-07-08T00:49:26.269Z,97905.95
2018-07-08T00:51:59.085Z,97906.18
2018-07-08T00:54:31.636Z,97903.49
2018-07-08T00:57:04.838Z,97899.47
2018-07-08T00:59:37.744Z,97906.92
2018-07-08T01:02:10.826Z,97905.87
2018-07-08T01:04:43.193Z,97905.27
2018-07-08T01:07:16.026Z,97908.48
2018-07-08T01:09:48.680Z,97905.74
2018-07-08T01:12:21.563Z,97908.48
2018-07-08T01:14:54.298Z,97912.50
2018-07-08T01:17:26.977Z,97917.05
2018-07-08T01:19:59.350Z,97921.08
2018-07-08T01:22:32.433Z,97922.42
2018-07-08T01:25:12.278Z,97925.11
2018-07-08T01:27:45.241Z,97926.75
2018-07-08T01:30:18.375Z,97925.94
2018-07-08T01:32:51.107Z,97928.62
2018-07-08T01:35:23.669Z,97927.80
2018-07-08T01:37:56.841Z,97931.55
2018-07-08T01:40:29.019Z,97936.63
2018-07-08T01:43:01.678Z,97935.28
2018-07-08T01:45:34.411Z,97932.07
2018-07-08T01:48:07.517Z,97935.28
2018-07-08T01:50:40.108Z,97934.06
2018-07-08T01:53:13.495Z,97933.03
2018-07-08T01:55:46.315Z,97934.67
2018-07-08T01:58:19.647Z,97934.67
2018-07-08T02:00:51.698Z,97937.36
2018-07-08T02:03:24.517Z,97934.67
2018-07-08T02:05:57.585Z,97939.00
2018-07-08T02:08:30.491Z,97935.71
2018-07-08T02:11:03.483Z,97937.36
2018-07-08T02:13:36.203Z,97945.72
2018-07-08T02:16:08.899Z,97946.53
2018-07-08T02:18:41.701Z,97945.41
2018-07-08T02:21:14.585Z,97941.38
2018-07-08T02:23:47.328Z,97942.73
2018-07-08T02:26:20.023Z,97937.58
2018-07-08T02:28:53.079Z,97941.60
2018-07-08T02:31:25.959Z,97944.23
2018-07-08T02:33:58.621Z,97943.16
2018-07-08T02:36:31.393Z,97942.59
2018-07-08T02:39:04.420Z,97938.56
2018-07-08T02:41:37.256Z,97942.06
2018-07-08T02:44:09.766Z,97946.09
2018-07-08T02:46:43.617Z,97945.84
2018-07-08T02:49:17.068Z,97946.62
2018-07-08T02:51:50.213Z,97950.17
2018-07-08T02:54:22.915Z,97951.22
2018-07-08T02:56:55.625Z,97959.58
2018-07-08T02:59:28.169Z,97958.23
2018-07-08T03:02:00.339Z,97958.23
2018-07-08T03:04:33.245Z,97965.98
2018-07-08T03:07:05.465Z,97969.49
2018-07-08T03:09:38.297Z,97964.06
2018-07-08T03:12:10.628Z,97965.41
2018-07-08T03:14:42.794Z,97964.89
2018-07-08T03:17:15.883Z,97973.46
2018-07-08T03:19:48.173Z,97975.84
2018-07-08T03:22:20.800Z,97978.53
2018-07-08T03:24:53.327Z,97978.96
2018-07-08T03:27:25.740Z,97984.94
2018-07-08T03:29:58.106Z,97986.06
2018-07-08T03:32:30.620Z,97994.17
2018-07-08T03:35:03.173Z,97989.05
2018-07-08T03:37:35.698Z,97988.64
2018-07-08T03:40:07.790Z,97992.38
2018-07-08T03:42:39.843Z,97987.46
2018-07-08T03:45:12.183Z,97990.45
2018-07-08T03:47:44.543Z,97987.46
2018-07-08T03:50:16.904Z,97984.94
2018-07-08T03:52:49.868Z,97985.37
2018-07-08T03:55:22.570Z,97984.72
2018-07-08T03:57:54.772Z,97987.77
2018-07-08T04:00:27.141Z,97981.00
2018-07-08T04:02:59.182Z,97981.05
2018-07-08T04:05:31.536Z,97984.05
2018-07-08T04:08:03.982Z,97985.08
2018-07-08T04:10:36.968Z,97980.31
2018-07-08T04:13:09.389Z,97976.59
2018-07-08T04:15:42.250Z,97976.59
2018-07-08T04:18:14.371Z,97977.41
2018-07-08T04:20:47.405Z,97974.52
2018-07-08T04:23:19.400Z,97977.20
2018-07-08T04:25:51.769Z,97977.48
2018-07-08T04:28:24.881Z,97971.25
2018-07-08T04:30:57.186Z,97970.42
2018-07-08T04:33:30.406Z,97962.22
2018-07-08T04:36:03.157Z,97970.30
2018-07-08T04:38:35.794Z,97975.33
2018-07-08T04:41:08.706Z,97973.46
2018-07-08T04:43:41.057Z,97976.72
2018-07-08T04:46:13.520Z,97972.27
2018-07-08T04:48:45.911Z,97976.29
2018-07-08T04:51:17.957Z,97977.94
2018-07-08T04:53:50.785Z,97972.41
2018-07-08T04:56:23.359Z,97966.14
2018-07-08T04:58:55.773Z,97978.06
2018-07-08T05:01:28.501Z,97974.78
2018-07-08T05:04:00.842Z,97973.91
2018-07-08T05:06:33.176Z,97970.31
2018-07-08T05:09:05.554Z,97970.19
2018-07-08T05:11:38.084Z,97969.50
2018-07-08T05:14:11.077Z,97963.00
2018-07-08T05:16:43.931Z,97963.98
2018-07-08T05:19:16.779Z,97963.16
2018-07-08T05:21:50.079Z,97957.93
2018-07-08T05:24:22.102Z,97953.61
2018-07-08T05:26:54.948Z,97957.06
2018-07-08T05:29:27.553Z,97958.09
2018-07-08T05:31:59.862Z,97960.84
2018-07-08T05:34:32.513Z,97953.47
2018-07-08T05:37:05.127Z,97953.00
2018-07-08T05:39:37.424Z,97955.64
2018-07-08T05:42:09.923Z,97961.66
2018-07-08T05:44:42.683Z,97955.04
2018-07-08T05:47:15.726Z,97946.89
2018-07-08T05:49:48.254Z,97943.77
2018-07-08T05:52:20.981Z,97943.47
2018-07-08T05:54:53.105Z,97939.00
2018-07-08T05:57:26.250Z,97935.33
2018-07-08T05:59:58.683Z,97936.51
2018-07-08T06:02:31.144Z,97938.23
2018-07-08T06:05:03.571Z,97930.48
2018-07-08T06:07:37.149Z,97933.16
2018-07-08T06:10:10.185Z,97927.05
2018-07-08T06:12:43.067Z,97923.81
2018-07-08T06:15:16.717Z,97924.64
2018-07-08T06:17:49.600Z,97922.25
2018-07-08T06:20:21.686Z,97916.14
2018-07-08T06:22:54.303Z,97910.16
2018-07-08T06:25:26.618Z,97910.94
2018-07-08T06:27:59.768Z,97904.05
2018-07-08T06:30:32.247Z,97907.80
2018-07-08T06:33:05.247Z,97902.34
2018-07-08T06:35:37.883Z,97905.98
2018-07-08T06:38:10.306Z,97903.59
2018-07-08T06:40:43.134Z,97900.70
2018-07-08T06:43:15.539Z,97889.59
2018-07-08T06:45:47.901Z,97884.20
2018-07-08T06:48:20.772Z,97882.97
2018-07-08T06:50:52.969Z,97878.69
2018-07-08T06:53:26.129Z,97876.30
2018-07-08T06:55:58.567Z,97870.27
2018-07-08T06:58:31.508Z,97866.41
2018-07-08T07:01:03.723Z,97873.00
2018-07-08T07:03:36.621Z,97870.09
2018-07-08T07:06:09.519Z,97874.94
2018-07-08T07:08:42.545Z,97863.45
2018-07-08T07:11:14.859Z,97866.88
2018-07-08T07:13:47.836Z,97866.14
2018-07-08T07:16:21.154Z,97858.95
2018-07-08T07:18:53.406Z,97855.39
2018-07-08T07:21:26.269Z,97853.57
2018-07-08T07:23:58.762Z,97857.16
2018-07-08T07:26:31.825Z,97851.60
2018-07-08T07:29:05.003Z,97848.05
2018-07-08T07:31:36.942Z,97839.69
2018-07-08T07:34:09.637Z,97834.95
2018-07-08T07:36:42.095Z,97836.83
2018-07-08T07:39:14.743Z,97830.18
2018-07-08T07:41:46.840Z,97827.72
2018-07-08T07:44:19.843Z,97826.59
2018-07-08T07:46:52.107Z,97830.70
2018-07-08T07:49:24.574Z,97818.58
2018-07-08T07:51:56.981Z,97819.09
2018-07-08T07:54:29.497Z,97826.64
2018-07-08T07:57:01.924Z,97804.65
2018-07-08T07:59:34.370Z,97806.97
2018-07-08T08:02:07.066Z,97801.73
2018-07-08T08:04:39.662Z,97801.14
2018-07-08T08:07:12.400Z,97798.87
2018-07-08T08:09:45.321Z,97790.17
2018-07-08T08:12:17.816Z,97796.06
2018-07-08T08:14:50.267Z,97793.75
2018-07-08T08:17:22.677Z,97786.77
2018-07-08T08:19:55.646Z,97781.27
2018-07-08T08:22:28.220Z,97778.44
2018-07-08T08:25:00.990Z,97782.39
2018-07-08T08:27:33.647Z,97773.44
2018-07-08T08:30:06.652Z,97772.98
2018-07-08T08:32:39.185Z,97774.73
2018-07-08T08:35:12.949Z,97773.93
2018-07-08T08:37:46.401Z,97772.73
2018-07-08T08:40:19.791Z,97764.41
2018-07-08T08:42:52.636Z,97757.50
2018-07-08T08:45:26.513Z,97753.43
2018-07-08T08:47:59.136Z,97750.88
2018-07-08T08:50:32.300Z,97743.41
2018-07-08T08:53:04.707Z,97739.38
2018-07-08T08:55:37.444Z,97740.83
2018-07-08T08:58:09.711Z,97741.64
2018-07-08T09:00:42.238Z,97738.37
2018-07-08T09:03:15.202Z,97742.16
2018-07-08T09:05:48.153Z,97740.47
2018-07-08T09:08:21.109Z,97737.89
2018-07-08T09:10:53.789Z,97738.80
2018-07-08T09:13:31.144Z,97731.56
2018-07-08T09:16:04.376Z,97733.09
2018-07-08T09:18:37.434Z,97720.64
2018-07-08T09:21:10.297Z,97721.36
2018-07-08T09:23:42.649Z,97721.75
2018-07-08T09:26:15.793Z,97707.06
2018-07-08T09:28:48.304Z,97706.80
2018-07-08T09:31:21.977Z,97704.11
2018-07-08T09:33:54.884Z,97702.34
2018-07-08T09:36:27.300Z,97702.05
2018-07-08T09:39:00.256Z,97697.48
2018-07-08T09:41:33.400Z,97694.59
2018-07-08T09:44:07.190Z,97690.48
2018-07-08T09:46:39.222Z,97687.88
2018-07-08T09:49:11.927Z,97688.13
2018-07-08T09:51:44.974Z,97687.92
2018-07-08T09:54:18.063Z,97674.81
2018-07-08T09:56:50.200Z,97672.86
2018-07-08T09:59:23.070Z,97664.11
2018-07-08T10:01:56.390Z,97667.19
2018-07-08T10:04:28.984Z,97655.81
2018-07-08T10:07:01.746Z,97657.48
2018-07-08T10:09:35.348Z,97652.19
2018-07-08T10:12:08.677Z,97652.39
2018-07-08T10:14:40.842Z,97660.94
2018-07-08T10:17:12.887Z,97647.19
2018-07-08T10:19:45.425Z,97643.45
2018-07-08T10:22:17.892Z,97634.41
2018-07-08T10:24:50.350Z,97634.33
2018-07-08T10:40:40.026Z,97625.87
2018-07-08T10:43:12.255Z,97598.67
2018-07-08T10:45:45.194Z,97595.45
2018-07-08T10:48:17.980Z,97594.05
2018-07-08T10:50:50.588Z,97590.39
2018-07-08T10:53:23.658Z,97591.47
2018-07-08T10:55:56.614Z,97592.26
2018-07-08T10:58:29.615Z,97592.84
2018-07-08T11:01:02.654Z,97597.98
2018-07-08T11:03:36.197Z,97604.95
2018-07-08T11:06:08.377Z,97597.11
2018-07-08T11:08:41.040Z,97590.50
2018-07-08T11:11:13.336Z,97598.30
2018-07-08T11:13:45.833Z,97591.05
2018-07-08T11:16:18.507Z,97592.39
2018-07-08T11:18:50.814Z,97596.20
2018-07-08T11:21:22.974Z,97588.17
2018-07-08T11:23:55.609Z,97585.77
2018-07-08T11:26:28.350Z,97596.14
2018-07-08T11:29:01.208Z,97593.56
2018-07-08T11:31:33.649Z,97594.16
2018-07-08T11:34:06.378Z,97589.83
2018-07-08T11:36:38.942Z,97593.92
2018-07-08T11:39:11.411Z,97588.25
2018-07-08T11:41:44.241Z,97585.03
2018-07-08T11:44:17.554Z,97584.80
2018-07-08T11:46:50.547Z,97581.34
2018-07-08T11:49:23.380Z,97577.59
2018-07-08T11:51:56.014Z,97582.02
2018-07-08T11:54:28.556Z,97582.84
2018-07-08T11:57:01.012Z,97573.66
2018-07-08T11:59:33.300Z,97580.86
2018-07-08T12:02:05.632Z,97574.72
2018-07-08T12:04:37.850Z,97580.86
2018-07-08T12:07:10.596Z,97581.62
2018-07-08T12:09:42.613Z,97579.99
2018-07-08T12:12:14.849Z,97574.32
2018-07-08T12:14:47.396Z,97576.80
2018-07-08T12:17:19.922Z,97569.41
2018-07-08T12:19:52.050Z,97566.53
2018-07-08T12:22:24.203Z,97568.94
2018-07-08T12:24:56.701Z,97568.36
2018-07-08T12:27:29.547Z,97573.55
2018-07-08T12:30:01.427Z,97582.39
2018-07-08T12:32:33.833Z,97578.06
2018-07-08T12:35:06.358Z,97583.16
2018-07-08T12:37:38.584Z,97581.76
2018-07-08T12:40:10.939Z,97589.12
2018-07-08T12:42:43.834Z,97586.67
2018-07-08T12:45:16.109Z,97589.94
2018-07-08T12:47:48.741Z,97584.80
2018-07-08T12:50:21.384Z,97586.91
2018-07-08T12:52:54.132Z,97584.03
2018-07-08T12:55:26.300Z,97583.53
2018-07-08T12:57:58.818Z,97583.45
2018-07-08T13:00:31.369Z,97585.37
2018-07-08T13:03:03.920Z,97579.81
2018-07-08T13:05:36.101Z,97581.39
2018-07-08T13:08:10.832Z,97578.65
2018-07-08T13:10:43.042Z,97584.22
2018-07-08T13:13:15.807Z,97580.47
2018-07-08T13:15:48.369Z,97585.27
2018-07-08T13:18:21.381Z,97588.83
2018-07-08T13:20:53.815Z,97594.74
2018-07-08T13:23:26.146Z,97596.38
2018-07-08T13:25:58.489Z,97590.66
2018-07-08T13:28:30.758Z,97593.16
2018-07-08T13:31:02.693Z,97607.78
2018-07-08T13:33:35.246Z,97614.33
2018-07-08T13:36:07.895Z,97622.13
2018-07-08T13:38:40.547Z,97620.55
2018-07-08T13:41:12.971Z,97622.72
2018-07-08T13:43:45.932Z,97630.20
2018-07-08T13:46:18.131Z,97628.48
2018-07-08T13:48:50.501Z,97631.41
2018-07-08T13:51:22.927Z,97636.91
2018-07-08T13:53:56.146Z,97641.50
2018-07-08T13:56:28.509Z,97646.36
2018-07-08T13:59:00.798Z,97653.59
2018-07-08T14:01:33.495Z,97657.40
2018-07-08T14:04:05.911Z,97655.09
2018-07-08T14:06:38.211Z,97657.86
2018-07-08T14:09:10.240Z,97663.48
2018-07-08T14:11:42.858Z,97658.97
2018-07-08T14:14:15.476Z,97662.77
2018-07-08T14:16:47.636Z,97661.37
2018-07-08T14:19:20.842Z,97661.61
2018-07-08T14:21:53.686Z,97669.20
2018-07-08T14:24:26.090Z,97665.47
2018-07-08T14:26:58.163Z,97666.81
2018-07-08T14:29:30.874Z,97672.19
2018-07-08T14:32:03.168Z,97670.55
2018-07-08T14:34:35.780Z,97671.38
2018-07-08T14:37:08.384Z,97668.16
2018-07-08T14:39:40.754Z,97664.06
2018-07-08T14:42:12.942Z,97665.70
2018-07-08T14:44:45.273Z,97655.17
2018-07-08T14:47:17.885Z,97659.50
2018-07-08T14:49:50.367Z,97653.83
2018-07-08T14:52:22.610Z,97651.13
2018-07-08T14:54:54.965Z,97652.19
2018-07-08T14:57:27.484Z,97656.52
2018-07-08T14:59:59.578Z,97650.31
2018-07-08T15:02:32.751Z,97653.83
2018-07-08T15:05:05.735Z,97657.86
2018-07-08T15:07:37.703Z,97656.80
2018-07-08T15:10:09.865Z,97652.48
2018-07-08T15:12:42.104Z,97657.86
2018-07-08T15:15:14.734Z,97665.41
2018-07-08T15:17:47.450Z,97662.19
2018-07-08T15:20:20.934Z,97673.48
2018-07-08T15:22:53.183Z,97670.20
2018-07-08T15:25:25.241Z,97675.59
2018-07-08T15:27:57.303Z,97676.91
2018-07-08T15:30:29.585Z,97678.52
2018-07-08T15:33:03.064Z,97685.83
2018-07-08T15:35:36.274Z,97683.95
2018-07-08T15:38:12.454Z,97684.48
2018-07-08T15:40:44.628Z,97682.08
2018-07-08T15:43:16.842Z,97686.59
2018-07-08T15:45:49.375Z,97688.23
2018-07-08T15:48:21.731Z,97695.74
2018-07-08T15:50:54.153Z,97698.44
2018-07-08T15:53:26.273Z,97698.75
2018-07-08T15:55:58.896Z,97709.08
2018-07-08T15:58:31.528Z,97707.85
2018-07-08T16:01:04.009Z,97713.49
2018-07-08T16:03:36.192Z,97712.00
2018-07-08T16:06:08.479Z,97711.54
2018-07-08T16:08:40.630Z,97710.25
2018-07-08T16:11:13.282Z,97716.98
2018-07-08T16:13:45.641Z,97723.71
2018-07-08T16:16:17.966Z,97722.66
2018-07-08T16:18:50.440Z,97730.73
2018-07-08T16:21:22.722Z,97730.73
2018-07-08T16:23:55.130Z,97726.70
2018-07-08T16:26:27.194Z,97729.91
2018-07-08T16:28:59.394Z,97735.83
2018-07-08T16:31:31.872Z,97733.12
2018-07-08T16:34:05.235Z,97739.86
2018-07-08T16:36:37.477Z,97745.70
2018-07-08T16:39:09.682Z,97746.00
2018-07-08T16:41:42.002Z,97755.42
2018-07-08T16:44:14.093Z,97757.35
2018-07-08T16:46:46.611Z,97759.75
2018-07-08T16:49:18.531Z,97763.55
2018-07-08T16:51:50.713Z,97765.36
2018-07-08T16:54:22.835Z,97775.08
2018-07-08T16:56:55.378Z,97773.50
2018-07-08T16:59:28.686Z,97778.88
2018-07-08T17:02:01.510Z,97780.45
2018-07-08T17:04:34.390Z,97781.16
2018-07-08T17:07:06.891Z,97789.49
2018-07-08T17:09:39.011Z,97789.91
2018-07-08T17:12:11.538Z,97792.94
2018-07-08T17:14:43.891Z,97788.67
2018-07-08T17:17:16.734Z,97791.13
2018-07-08T17:19:49.413Z,97785.75
2018-07-08T17:22:22.245Z,97787.91
2018-07-08T17:24:54.401Z,97786.34
2018-07-08T17:27:26.370Z,97786.14
2018-07-08T17:29:58.968Z,97789.72
2018-07-08T17:32:31.527Z,97789.48
2018-07-08T17:35:03.723Z,97790.30
2018-07-08T17:37:36.058Z,97792.73
2018-07-08T17:40:08.896Z,97794.91
2018-07-08T17:42:41.500Z,97793.55
2018-07-08T17:45:13.488Z,97790.60
2018-07-08T17:47:45.684Z,97792.21
2018-07-08T17:50:17.816Z,97792.21
2018-07-08T17:52:51.091Z,97784.66
2018-07-08T17:55:23.303Z,97784.66
2018-07-08T17:57:56.056Z,97779.84
2018-07-08T18:00:29.553Z,97786.56
2018-07-08T18:03:01.811Z,97786.56
2018-07-08T18:05:33.597Z,97784.11
2018-07-08T18:08:05.726Z,97780.59
2018-07-08T18:10:37.483Z,97783.52
2018-07-08T18:13:10.040Z,97775.15
2018-07-08T18:15:42.230Z,97772.23
2018-07-08T18:18:14.309Z,97769.83
2018-07-08T18:20:46.728Z,97764.16
2018-07-08T18:23:19.064Z,97762.58
2018-07-08T18:25:51.559Z,97766.84
2018-07-08T18:28:23.845Z,97761.47
2018-07-08T18:30:55.920Z,97765.80
2018-07-08T18:33:28.402Z,97764.16
2018-07-08T18:36:00.760Z,97754.73
2018-07-08T18:38:33.418Z,97758.48
2018-07-08T18:41:06.738Z,97749.30
2018-07-08T18:43:39.125Z,97752.80
2018-07-08T18:46:11.549Z,97763.53
2018-07-08T18:48:43.902Z,97766.45
2018-07-08T18:51:16.041Z,97768.33
2018-07-08T18:53:48.516Z,97769.91
2018-07-08T18:56:21.083Z,97772.13
2018-07-08T18:58:54.002Z,97769.67
2018-07-08T19:01:26.527Z,97766.16
2018-07-08T19:03:59.110Z,97764.06
2018-07-08T19:06:31.348Z,97761.89
2018-07-08T19:09:03.812Z,97764.06
2018-07-08T19:11:35.996Z,97761.89
2018-07-08T19:14:08.182Z,97759.44
2018-07-08T19:16:41.024Z,97756.68
2018-07-08T19:19:15.205Z,97756.68
2018-07-08T19:21:47.448Z,97762.88
2018-07-08T19:24:20.333Z,97763.67
2018-07-08T19:26:52.491Z,97763.09
2018-07-08T19:29:25.656Z,97761.34
2018-07-08T19:31:57.844Z,97764.92
2018-07-08T19:34:30.358Z,97760.88
2018-07-08T19:37:02.564Z,97763.12
2018-07-08T19:39:34.979Z,97765.61
2018-07-08T19:42:07.249Z,97760.72
2018-07-08T19:44:39.502Z,97762.59
2018-07-08T19:47:11.407Z,97765.38
2018-07-08T19:49:43.958Z,97762.69
2018-07-08T19:52:16.803Z,97757.02
2018-07-08T19:54:49.040Z,97754.00
2018-07-08T19:57:21.467Z,97756.91
2018-07-08T19:59:53.911Z,97762.06
2018-07-08T20:02:26.415Z,97757.73
2018-07-08T20:04:59.426Z,97758.03
2018-07-08T20:07:31.528Z,97749.89
2018-07-08T20:10:03.825Z,97752.81
2018-07-08T20:12:36.468Z,97745.30
2018-07-08T20:15:08.913Z,97747.44
2018-07-08T20:17:40.976Z,97739.56
2018-07-08T20:20:13.645Z,97741.66
2018-07-08T20:22:45.992Z,97745.70
2018-07-08T20:25:18.738Z,97747.17
2018-07-08T20:27:50.962Z,97742.84
2018-07-08T20:30:23.458Z,97741.66
2018-07-08T20:32:55.756Z,97743.07
2018-07-08T20:35:27.808Z,97742.25
2018-07-08T20:37:59.996Z,97738.45
2018-07-08T20:40:33.042Z,97740.31
2018-07-08T20:43:05.777Z,97747.41
2018-07-08T20:45:38.123Z,97748.22
2018-07-08T20:48:10.440Z,97756.00
2018-07-08T20:50:43.209Z,97741.37
2018-07-08T20:53:16.033Z,97739.56
2018-07-08T20:55:48.275Z,97740.09
2018-07-08T20:58:21.636Z,97741.37
2018-07-08T21:00:54.185Z,97745.01
2018-07-08T21:03:26.300Z,97747.23
2018-07-08T21:05:58.861Z,97743.20
2018-07-08T21:08:31.247Z,97744.45
2018-07-08T21:11:03.747Z,97746.13
2018-07-08T21:13:36.551Z,97747.98
2018-07-08T21:16:09.048Z,97756.88
2018-07-08T21:18:41.928Z,97753.27
2018-07-08T21:21:14.327Z,97751.17
2018-07-08T21:23:46.757Z,97748.74
2018-07-08T21:26:19.178Z,97753.86
2018-07-08T21:28:52.457Z,97749.98
2018-07-08T21:31:25.265Z,97749.39
2018-07-08T21:33:57.703Z,97745.66
2018-07-08T21:36:29.899Z,97744.31
2018-07-08T21:39:02.925Z,97744.91
2018-07-08T21:41:35.710Z,97741.98
2018-07-08T21:44:08.302Z,97744.08
2018-07-08T21:46:40.899Z,97740.88
2018-07-08T21:49:12.910Z,97738.64
2018-07-08T21:51:44.971Z,97739.20
2018-07-08T21:54:16.992Z,97736.73
2018-07-08T21:56:49.380Z,97736.73
2018-07-08T21:59:21.662Z,97743.45
2018-07-08T22:02:05.370Z,97743.45
2018-07-08T22:04:37.352Z,97746.90
2018-07-08T22:07:13.826Z,97738.61
2018-07-08T22:09:46.433Z,97742.97
2018-07-08T22:12:18.910Z,97741.00
2018-07-08T22:14:50.980Z,97740.47
2018-07-08T22:17:23.445Z,97735.84
2018-07-08T22:19:55.780Z,97735.25
2018-07-08T22:22:28.889Z,97745.26
2018-07-08T22:25:01.458Z,97744.51
2018-07-08T22:27:34.003Z,97739.88
2018-07-08T22:30:07.073Z,97744.51
2018-07-08T22:32:39.760Z,97751.91
2018-07-08T22:35:11.805Z,97747.95
2018-07-08T22:37:43.929Z,97759.19
2018-07-08T22:40:15.927Z,97764.56
2018-07-08T22:42:48.225Z,97760.53
2018-07-08T22:45:20.270Z,97764.27
2018-07-08T22:47:53.037Z,97766.37
2018-07-08T22:50:25.181Z,97763.91
2018-07-08T22:52:57.912Z,97767.41
2018-07-08T22:55:30.114Z,97767.41
2018-07-08T22:58:02.359Z,97765.55
2018-07-08T23:00:43.607Z,97767.12
2018-07-08T23:03:27.786Z,97767.12
2018-07-08T23:05:59.750Z,97770.00
2018-07-08T23:08:31.512Z,97768.23
2018-07-08T23:11:03.769Z,97766.55
2018-07-08T23:13:37.053Z,97770.29
2018-07-08T23:16:09.532Z,97767.01
2018-07-08T23:18:41.796Z,97770.81
2018-07-08T23:21:13.957Z,97767.23
2018-07-08T23:23:46.125Z,97766.91
2018-07-08T23:26:18.067Z,97772.55
2018-07-08T23:28:50.454Z,97776.13
2018-07-08T23:31:23.628Z,97772.55
2018-07-08T23:33:56.449Z,97778.52
2018-07-08T23:36:28.528Z,97772.55
2018-07-08T23:39:01.122Z,97780.02
2018-07-08T23:41:33.420Z,97780.31
2018-07-08T23:44:05.712Z,97782.55
2018-07-08T23:46:37.888Z,97791.95
2018-07-08T23:49:10.618Z,97794.94
2018-07-08T23:51:43.065Z,97799.69
2018-07-08T23:54:16.106Z,97795.62
2018-07-08T23:56:48.552Z,97801.44
2018-07-08T23:59:20.801Z,97805.55
